createdAt,value
2023-04-23T00:00:08.508Z,57.89
2023-04-23T00:02:48.217Z,58.46
2023-04-23T00:05:19.881Z,59.74
2023-04-23T00:07:54.516Z,59.23
2023-04-23T00:10:28.001Z,59.60
2023-04-23T00:12:58.007Z,60.06
2023-04-23T00:15:27.201Z,59.48
2023-04-23T00:17:54.745Z,59.84
2023-04-23T00:20:23.045Z,60.03
2023-04-23T00:22:52.606Z,60.84
2023-04-23T00:25:19.887Z,61.18
2023-04-23T00:27:48.262Z,60.54
2023-04-23T00:30:16.962Z,61.01
2023-04-23T00:32:44.872Z,61.43
2023-04-23T00:35:12.962Z,61.46
2023-04-23T00:37:40.356Z,61.37
2023-04-23T00:40:08.219Z,60.70
2023-04-23T00:42:36.475Z,60.25
2023-04-23T00:45:03.689Z,59.35
2023-04-23T00:47:31.548Z,59.51
2023-04-23T00:49:59.837Z,59.40
2023-04-23T00:52:28.423Z,58.21
2023-04-23T00:54:56.583Z,58.79
2023-04-23T00:57:23.635Z,58.79
2023-04-23T00:59:51.149Z,59.64
2023-04-23T01:02:18.879Z,58.98
2023-04-23T01:04:51.384Z,58.85
2023-04-23T01:07:18.909Z,58.90
2023-04-23T01:09:46.534Z,59.83
2023-04-23T01:12:18.045Z,59.26
2023-04-23T01:14:46.193Z,59.63
2023-04-23T01:17:13.846Z,59.25
2023-04-23T01:19:41.263Z,59.52
2023-04-23T01:22:15.272Z,59.67
2023-04-23T01:24:43.241Z,59.49
2023-04-23T01:27:11.369Z,59.36
2023-04-23T01:29:42.500Z,59.89
2023-04-23T01:32:10.135Z,59.90
2023-04-23T01:34:39.884Z,59.58
2023-04-23T01:37:07.990Z,60.12
2023-04-23T01:39:36.318Z,60.52
2023-04-23T01:42:04.317Z,59.84
2023-04-23T01:44:31.343Z,59.41
2023-04-23T01:46:58.820Z,59.36
2023-04-23T01:49:25.861Z,58.96
2023-04-23T01:51:52.997Z,58.78
2023-04-23T01:54:20.047Z,58.89
2023-04-23T01:56:50.260Z,58.71
2023-04-23T01:59:17.479Z,58.48
2023-04-23T02:01:48.194Z,57.98
2023-04-23T02:04:16.650Z,57.95
2023-04-23T02:06:48.828Z,57.67
2023-04-23T02:09:15.986Z,57.83
2023-04-23T02:11:43.259Z,57.74
2023-04-23T02:14:11.120Z,57.55
2023-04-23T02:16:38.338Z,57.11
2023-04-23T02:19:05.687Z,57.40
2023-04-23T02:21:35.027Z,57.35
2023-04-23T02:24:02.219Z,56.79
2023-04-23T02:26:30.308Z,57.20
2023-04-23T02:28:57.436Z,56.57
2023-04-23T02:31:24.563Z,56.57
2023-04-23T02:33:52.142Z,56.60
2023-04-23T02:36:19.250Z,57.04
2023-04-23T02:38:48.704Z,56.29
2023-04-23T02:41:15.836Z,56.54
2023-04-23T02:43:43.009Z,56.56
2023-04-23T02:46:10.289Z,56.78
2023-04-23T02:48:42.029Z,56.69
2023-04-23T02:51:12.456Z,56.64
2023-04-23T02:53:39.545Z,56.43
2023-04-23T02:56:07.492Z,56.55
2023-04-23T02:58:35.686Z,56.23
2023-04-23T03:01:03.636Z,56.40
2023-04-23T03:03:32.676Z,56.16
2023-04-23T03:06:03.004Z,55.85
2023-04-23T03:08:30.047Z,55.71
2023-04-23T03:10:57.196Z,55.95
2023-04-23T03:13:26.680Z,55.61
2023-04-23T03:15:57.115Z,55.48
2023-04-23T03:18:29.027Z,55.56
2023-04-23T03:20:57.070Z,55.71
2023-04-23T03:23:24.503Z,55.88
2023-04-23T03:25:51.798Z,55.45
2023-04-23T03:28:18.906Z,55.95
2023-04-23T03:30:46.309Z,55.54
2023-04-23T03:33:13.534Z,56.01
2023-04-23T03:35:40.636Z,55.97
2023-04-23T03:38:12.624Z,55.91
2023-04-23T03:40:40.997Z,55.91
2023-04-23T03:43:09.809Z,55.85
2023-04-23T03:46:09.344Z,56.04
2023-04-23T03:48:40.415Z,55.89
2023-04-23T03:51:12.501Z,55.77
2023-04-23T03:53:46.139Z,55.35
2023-04-23T03:56:34.064Z,55.31
2023-04-23T03:59:15.335Z,55.25
2023-04-23T04:01:45.359Z,54.98
2023-04-23T04:04:13.018Z,54.73
2023-04-23T04:06:40.926Z,54.73
2023-04-23T04:09:09.332Z,54.39
2023-04-23T04:11:37.045Z,54.41
2023-04-23T04:14:04.177Z,54.47
2023-04-23T04:16:31.278Z,54.02
2023-04-23T04:18:58.823Z,53.75
2023-04-23T04:21:26.113Z,53.85
2023-04-23T04:23:53.820Z,53.82
2023-04-23T04:26:20.869Z,53.56
2023-04-23T04:28:47.893Z,53.59
2023-04-23T04:31:16.404Z,53.82
2023-04-23T04:33:43.620Z,53.56
2023-04-23T04:36:10.682Z,53.59
2023-04-23T04:38:38.171Z,53.40
2023-04-23T04:41:05.381Z,53.49
2023-04-23T04:43:33.134Z,53.56
2023-04-23T04:46:01.330Z,53.36
2023-04-23T04:48:28.492Z,53.49
2023-04-23T04:50:55.683Z,53.40
2023-04-23T04:53:22.878Z,53.19
2023-04-23T04:55:50.294Z,53.58
2023-04-23T04:58:17.592Z,53.46
2023-04-23T05:00:44.754Z,53.74
2023-04-23T05:03:14.320Z,53.43
2023-04-23T05:05:41.698Z,53.52
2023-04-23T05:08:09.557Z,53.84
2023-04-23T05:10:36.938Z,53.35
2023-04-23T05:13:03.966Z,53.72
2023-04-23T05:15:31.087Z,53.31
2023-04-23T05:17:58.203Z,53.36
2023-04-23T05:20:25.509Z,53.43
2023-04-23T05:22:54.723Z,53.11
2023-04-23T05:25:21.917Z,53.19
2023-04-23T05:27:49.032Z,53.30
2023-04-23T05:30:16.239Z,53.25
2023-04-23T05:32:43.632Z,53.18
2023-04-23T05:35:11.992Z,52.92
2023-04-23T05:37:39.152Z,53.27
2023-04-23T05:40:07.388Z,53.12
2023-04-23T05:42:37.574Z,53.10
2023-04-23T05:45:06.679Z,53.00
2023-04-23T05:47:35.626Z,53.16
2023-04-23T05:50:02.856Z,53.07
2023-04-23T05:52:33.611Z,53.34
2023-04-23T05:55:00.844Z,53.44
2023-04-23T05:57:28.027Z,53.30
2023-04-23T05:59:55.266Z,52.80
2023-04-23T06:02:24.542Z,52.90
2023-04-23T06:04:52.855Z,52.96
2023-04-23T06:07:20.819Z,52.89
2023-04-23T06:09:48.140Z,52.83
2023-04-23T06:12:15.244Z,52.94
2023-04-23T06:14:42.522Z,52.63
2023-04-23T06:17:09.823Z,52.64
2023-04-23T06:19:37.068Z,52.71
2023-04-23T06:22:04.146Z,52.47
2023-04-23T06:24:32.116Z,52.35
2023-04-23T06:26:59.246Z,52.34
2023-04-23T06:29:28.111Z,51.97
2023-04-23T06:32:14.230Z,52.10
2023-04-23T06:34:53.258Z,52.03
2023-04-23T06:37:29.674Z,52.18
2023-04-23T06:39:58.331Z,52.15
2023-04-23T06:42:25.917Z,51.57
2023-04-23T06:45:12.236Z,52.00
2023-04-23T06:47:39.966Z,51.77
2023-04-23T06:50:08.556Z,51.87
2023-04-23T06:52:36.340Z,52.12
2023-04-23T06:55:03.738Z,52.03
2023-04-23T06:57:30.966Z,51.69
2023-04-23T06:59:58.107Z,51.68
2023-04-23T07:02:30.040Z,51.96
2023-04-23T07:04:57.446Z,51.81
2023-04-23T07:07:26.250Z,51.59
2023-04-23T07:09:53.398Z,51.67
2023-04-23T07:12:20.691Z,51.75
2023-04-23T07:14:47.878Z,51.26
2023-04-23T07:17:14.926Z,50.94
2023-04-23T07:19:42.498Z,50.75
2023-04-23T07:22:09.963Z,50.84
2023-04-23T07:24:40.735Z,50.42
2023-04-23T07:27:11.311Z,50.57
2023-04-23T07:29:38.556Z,50.31
2023-04-23T07:32:05.752Z,50.17
2023-04-23T07:34:33.235Z,50.65
2023-04-23T07:37:00.836Z,51.33
2023-04-23T07:39:27.984Z,52.38
2023-04-23T07:41:55.453Z,50.97
2023-04-23T07:44:22.678Z,51.64
2023-04-23T07:46:53.491Z,51.08
2023-04-23T07:49:20.722Z,50.45
2023-04-23T07:51:49.226Z,50.43
2023-04-23T07:54:16.518Z,50.43
2023-04-23T07:56:43.769Z,49.96
2023-04-23T07:59:11.046Z,50.31
2023-04-23T08:01:42.257Z,50.84
2023-04-23T08:04:09.706Z,49.87
2023-04-23T08:06:37.016Z,50.33
2023-04-23T08:09:07.091Z,50.95
2023-04-23T08:11:34.227Z,50.91
2023-04-23T08:14:02.155Z,50.52
2023-04-23T08:16:30.787Z,50.41
2023-04-23T08:19:05.479Z,50.21
2023-04-23T08:21:34.192Z,51.52
2023-04-23T08:24:03.222Z,51.24
2023-04-23T08:26:31.698Z,51.62
2023-04-23T08:29:00.992Z,53.07
2023-04-23T08:31:28.848Z,50.52
2023-04-23T08:33:56.268Z,49.98
2023-04-23T08:36:23.729Z,49.81
2023-04-23T08:38:50.857Z,49.11
2023-04-23T08:41:19.493Z,49.52
2023-04-23T08:44:18.617Z,47.58
2023-04-23T08:46:46.206Z,47.83
2023-04-23T08:49:16.784Z,47.88
2023-04-23T08:51:52.656Z,48.63
2023-04-23T08:54:27.217Z,49.51
2023-04-23T08:56:58.670Z,50.19
2023-04-23T08:59:34.676Z,50.79
2023-04-23T09:02:08.394Z,51.27
2023-04-23T09:04:39.014Z,50.73
2023-04-23T09:07:11.423Z,51.45
2023-04-23T09:09:40.970Z,50.39
2023-04-23T09:12:09.602Z,50.33
2023-04-23T09:14:40.371Z,49.97
2023-04-23T09:17:07.875Z,50.93
2023-04-23T09:19:39.042Z,50.76
2023-04-23T09:22:07.789Z,50.31
2023-04-23T09:24:35.066Z,49.82
2023-04-23T09:27:03.036Z,50.07
2023-04-23T09:29:31.312Z,49.92
2023-04-23T09:32:07.843Z,49.96
2023-04-23T09:34:37.795Z,49.00
2023-04-23T09:37:08.429Z,49.12
2023-04-23T09:39:40.397Z,48.11
2023-04-23T09:42:11.106Z,47.71
2023-04-23T09:44:38.314Z,47.51
2023-04-23T09:47:15.065Z,48.44
2023-04-23T09:49:49.422Z,47.09
2023-04-23T09:52:17.215Z,47.17
2023-04-23T09:54:46.693Z,49.30
2023-04-23T09:57:14.388Z,47.56
2023-04-23T09:59:48.716Z,47.77
2023-04-23T10:02:19.318Z,48.40
2023-04-23T10:04:58.332Z,46.40
2023-04-23T10:07:32.670Z,47.17
2023-04-23T10:10:00.051Z,46.33
2023-04-23T10:12:44.590Z,45.67
2023-04-23T10:15:15.699Z,43.58
2023-04-23T10:17:43.265Z,43.70
2023-04-23T10:20:12.772Z,43.75
2023-04-23T10:22:44.524Z,44.45
2023-04-23T10:25:12.775Z,44.90
2023-04-23T10:27:53.254Z,45.56
2023-04-23T10:30:23.025Z,43.68
2023-04-23T10:32:53.926Z,42.64
2023-04-23T10:35:21.030Z,42.42
2023-04-23T10:37:51.406Z,43.85
2023-04-23T10:40:32.627Z,44.26
2023-04-23T10:43:00.512Z,43.23
2023-04-23T10:45:39.978Z,42.13
2023-04-23T10:48:08.833Z,43.65
2023-04-23T10:50:37.864Z,42.67
2023-04-23T10:53:05.929Z,42.42
2023-04-23T10:55:33.327Z,44.40
2023-04-23T10:58:08.603Z,42.68
2023-04-23T11:00:46.872Z,42.06
2023-04-23T11:03:30.917Z,42.61
2023-04-23T11:06:05.694Z,43.43
2023-04-23T11:08:35.495Z,43.57
2023-04-23T11:11:07.102Z,43.36
2023-04-23T11:13:35.049Z,43.74
2023-04-23T11:16:38.760Z,42.78
2023-04-23T11:19:12.987Z,43.87
2023-04-23T11:21:55.110Z,42.49
2023-04-23T11:24:27.946Z,42.14
2023-04-23T11:26:55.614Z,43.54
2023-04-23T11:29:24.340Z,43.53
2023-04-23T11:32:01.741Z,43.25
2023-04-23T11:34:31.334Z,44.19
2023-04-23T11:36:59.741Z,44.96
2023-04-23T11:39:28.640Z,44.13
2023-04-23T11:41:57.889Z,44.96
2023-04-23T11:44:25.610Z,45.43
2023-04-23T11:46:52.867Z,46.20
2023-04-23T11:49:25.191Z,48.21
2023-04-23T11:51:52.713Z,46.12
2023-04-23T11:54:25.196Z,45.77
2023-04-23T11:56:53.963Z,46.09
2023-04-23T11:59:21.414Z,47.37
2023-04-23T12:01:50.964Z,45.88
2023-04-23T12:04:29.833Z,46.71
2023-04-23T12:06:58.605Z,47.21
2023-04-23T12:09:27.814Z,47.14
2023-04-23T12:11:56.045Z,48.61
2023-04-23T12:14:31.319Z,46.83
2023-04-23T12:17:09.030Z,47.76
2023-04-23T12:19:36.772Z,48.64
2023-04-23T12:22:04.569Z,47.92
2023-04-23T12:24:48.714Z,46.94
2023-04-23T12:27:20.469Z,47.28
2023-04-23T12:30:04.284Z,49.94
2023-04-23T12:32:34.512Z,47.06
2023-04-23T12:35:01.828Z,47.79
2023-04-23T12:37:31.221Z,48.18
2023-04-23T12:40:01.684Z,49.36
2023-04-23T12:42:28.840Z,47.89
2023-04-23T12:44:56.687Z,48.83
2023-04-23T12:47:24.089Z,48.56
2023-04-23T12:49:53.973Z,47.51
2023-04-23T12:52:21.496Z,47.81
2023-04-23T12:54:52.347Z,45.86
2023-04-23T12:57:25.844Z,46.09
2023-04-23T12:59:55.143Z,44.98
2023-04-23T13:02:23.375Z,45.13
2023-04-23T13:04:50.948Z,44.99
2023-04-23T13:07:22.008Z,45.19
2023-04-23T13:09:52.613Z,46.40
2023-04-23T13:12:20.907Z,44.92
2023-04-23T13:14:50.288Z,45.26
2023-04-23T13:17:18.335Z,45.22
2023-04-23T13:19:45.509Z,43.53
2023-04-23T13:22:12.659Z,41.95
2023-04-23T13:24:40.150Z,42.48
2023-04-23T13:27:11.485Z,42.10
2023-04-23T13:29:40.680Z,42.66
2023-04-23T13:32:10.586Z,42.62
2023-04-23T13:34:37.842Z,42.91
2023-04-23T13:37:06.636Z,44.15
2023-04-23T13:39:39.896Z,43.58
2023-04-23T13:42:09.881Z,42.10
2023-04-23T13:44:37.430Z,40.73
2023-04-23T13:47:05.373Z,41.15
2023-04-23T13:49:33.525Z,43.24
2023-04-23T13:52:09.191Z,44.10
2023-04-23T13:54:36.641Z,45.29
2023-04-23T13:57:03.931Z,45.05
2023-04-23T13:59:31.253Z,44.67
2023-04-23T14:01:58.620Z,44.66
2023-04-23T14:04:28.506Z,44.35
2023-04-23T14:06:58.034Z,43.30
2023-04-23T14:09:25.531Z,43.08
2023-04-23T14:11:52.793Z,44.70
2023-04-23T14:14:20.061Z,44.57
2023-04-23T14:16:49.033Z,46.13
2023-04-23T14:19:16.083Z,44.09
2023-04-23T14:21:43.534Z,43.42
2023-04-23T14:24:44.757Z,44.19
2023-04-23T14:27:11.972Z,44.04
2023-04-23T14:29:47.403Z,45.80
2023-04-23T14:32:14.491Z,46.43
2023-04-23T14:34:41.588Z,46.70
2023-04-23T14:37:08.801Z,47.81
2023-04-23T14:39:35.865Z,47.11
2023-04-23T14:42:03.974Z,45.72
2023-04-23T14:44:31.197Z,45.01
2023-04-23T14:47:05.408Z,46.83
2023-04-23T14:49:32.500Z,45.45
2023-04-23T14:52:00.030Z,45.94
2023-04-23T14:54:27.264Z,44.58
2023-04-23T14:56:54.909Z,45.52
2023-04-23T14:59:22.403Z,43.97
2023-04-23T15:01:49.684Z,43.92
2023-04-23T15:04:17.295Z,44.04
2023-04-23T15:06:44.700Z,44.37
2023-04-23T15:09:12.726Z,43.52
2023-04-23T15:11:42.368Z,43.90
2023-04-23T15:14:21.290Z,42.56
2023-04-23T15:16:51.979Z,43.05
2023-04-23T15:19:21.634Z,43.06
2023-04-23T15:21:49.821Z,45.00
2023-04-23T15:24:17.419Z,44.09
2023-04-23T15:26:46.120Z,44.08
2023-04-23T15:29:13.946Z,43.98
2023-04-23T15:31:41.883Z,43.85
2023-04-23T15:34:09.817Z,45.89
2023-04-23T15:36:40.122Z,45.53
2023-04-23T15:39:09.412Z,46.30
2023-04-23T15:41:40.266Z,46.75
2023-04-23T15:44:12.101Z,46.05
2023-04-23T15:46:39.712Z,43.38
2023-04-23T15:49:06.866Z,43.98
2023-04-23T15:51:34.009Z,42.79
2023-04-23T15:54:02.386Z,43.14
2023-04-23T15:56:29.575Z,42.49
2023-04-23T15:58:57.323Z,41.81
2023-04-23T16:01:27.173Z,41.53
2023-04-23T16:04:09.721Z,41.72
2023-04-23T16:06:37.807Z,40.42
2023-04-23T16:09:08.460Z,40.00
2023-04-23T16:11:37.041Z,39.84
2023-04-23T16:14:06.223Z,40.50
2023-04-23T16:16:33.456Z,39.30
2023-04-23T16:19:00.660Z,39.20
2023-04-23T16:21:28.328Z,38.98
2023-04-23T16:23:55.808Z,38.51
2023-04-23T16:26:22.998Z,37.93
2023-04-23T16:28:56.353Z,37.67
2023-04-23T16:31:28.081Z,37.52
2023-04-23T16:33:55.829Z,36.58
2023-04-23T16:36:26.527Z,37.78
2023-04-23T16:38:55.152Z,38.03
2023-04-23T16:41:22.303Z,37.99
2023-04-23T16:43:49.568Z,37.54
2023-04-23T16:46:16.786Z,38.68
2023-04-23T16:48:44.963Z,37.97
2023-04-23T16:51:12.055Z,37.68
2023-04-23T16:53:41.661Z,37.69
2023-04-23T16:56:08.871Z,38.06
2023-04-23T16:58:36.246Z,38.00
2023-04-23T17:01:03.420Z,37.94
2023-04-23T17:03:30.754Z,37.53
2023-04-23T17:06:15.141Z,38.59
2023-04-23T17:08:42.312Z,39.00
2023-04-23T17:11:09.440Z,38.52
2023-04-23T17:13:36.622Z,38.01
2023-04-23T17:16:03.842Z,37.63
2023-04-23T17:18:31.065Z,37.43
2023-04-23T17:20:58.315Z,37.33
2023-04-23T17:23:28.740Z,36.16
2023-04-23T17:25:56.754Z,36.00
2023-04-23T17:28:24.084Z,35.28
2023-04-23T17:30:53.849Z,34.41
2023-04-23T17:33:22.173Z,34.30
2023-04-23T17:35:56.643Z,34.28
2023-04-23T17:38:24.890Z,34.46
2023-04-23T17:40:53.637Z,34.23
2023-04-23T17:43:21.611Z,34.38
2023-04-23T17:45:49.045Z,34.22
2023-04-23T17:48:16.604Z,33.84
2023-04-23T17:50:44.230Z,33.38
2023-04-23T17:53:13.646Z,33.75
2023-04-23T17:55:41.727Z,32.80
2023-04-23T17:58:10.724Z,33.14
2023-04-23T18:00:40.404Z,33.01
2023-04-23T18:03:09.060Z,32.91
2023-04-23T18:05:40.236Z,33.27
2023-04-23T18:08:08.643Z,33.55
2023-04-23T18:10:36.022Z,33.92
2023-04-23T18:13:04.056Z,32.84
2023-04-23T18:15:34.037Z,33.47
2023-04-23T18:18:01.736Z,33.62
2023-04-23T18:20:32.014Z,33.44
2023-04-23T18:22:59.578Z,33.25
2023-04-23T18:25:27.718Z,32.43
2023-04-23T18:27:55.682Z,32.70
2023-04-23T18:30:25.383Z,33.25
2023-04-23T18:33:00.981Z,35.25
2023-04-23T18:35:28.317Z,35.90
2023-04-23T18:38:04.823Z,37.14
2023-04-23T18:40:32.538Z,37.20
2023-04-23T18:43:02.106Z,37.22
2023-04-23T18:45:29.754Z,37.50
2023-04-23T18:48:07.484Z,37.99
2023-04-23T18:50:49.145Z,38.70
2023-04-23T18:53:22.284Z,39.13
2023-04-23T18:55:49.583Z,39.37
2023-04-23T18:58:21.665Z,38.97
2023-04-23T19:00:49.635Z,38.98
2023-04-23T19:03:26.059Z,39.26
2023-04-23T19:05:56.681Z,39.33
2023-04-23T19:08:30.549Z,38.88
2023-04-23T19:10:57.869Z,38.47
2023-04-23T19:13:25.429Z,38.38
2023-04-23T19:15:52.723Z,38.56
2023-04-23T19:18:20.269Z,39.44
2023-04-23T19:20:47.385Z,40.06
2023-04-23T19:23:14.728Z,41.02
2023-04-23T19:25:42.003Z,43.23
2023-04-23T19:28:09.844Z,44.27
2023-04-23T19:30:38.430Z,44.84
2023-04-23T19:33:05.895Z,46.40
2023-04-23T19:35:38.617Z,46.13
2023-04-23T19:38:07.630Z,47.41
2023-04-23T19:40:35.355Z,47.69
2023-04-23T19:43:03.966Z,48.32
2023-04-23T19:45:35.005Z,49.08
2023-04-23T19:48:05.058Z,48.73
2023-04-23T19:50:39.659Z,49.67
2023-04-23T19:53:06.924Z,52.00
2023-04-23T19:55:34.367Z,51.49
2023-04-23T19:58:01.761Z,52.87
2023-04-23T20:00:30.969Z,50.80
2023-04-23T20:02:59.534Z,51.31
2023-04-23T20:05:28.066Z,51.71
2023-04-23T20:07:55.106Z,51.47
2023-04-23T20:10:23.066Z,52.20
2023-04-23T20:12:54.361Z,51.52
2023-04-23T20:15:24.499Z,50.94
2023-04-23T20:17:52.731Z,50.46
2023-04-23T20:20:24.687Z,51.01
2023-04-23T20:22:51.729Z,51.09
2023-04-23T20:25:25.544Z,50.86
2023-04-23T20:27:55.794Z,51.45
2023-04-23T20:30:22.820Z,51.78
2023-04-23T20:32:52.224Z,51.52
2023-04-23T20:35:19.364Z,51.53
2023-04-23T20:37:47.130Z,51.47
2023-04-23T20:40:15.477Z,51.82
2023-04-23T20:42:42.545Z,51.83
2023-04-23T20:45:14.548Z,52.65
2023-04-23T20:47:41.887Z,52.44
2023-04-23T20:50:11.123Z,52.47
2023-04-23T20:52:38.830Z,52.00
2023-04-23T20:55:09.033Z,52.30
2023-04-23T20:57:40.003Z,52.53
2023-04-23T21:00:13.117Z,52.46
2023-04-23T21:02:43.169Z,52.84
2023-04-23T21:05:12.479Z,52.22
2023-04-23T21:07:44.500Z,53.32
2023-04-23T21:10:12.150Z,52.86
2023-04-23T21:12:42.982Z,53.54
2023-04-23T21:15:16.473Z,53.79
2023-04-23T21:17:43.949Z,53.69
2023-04-23T21:20:11.214Z,53.43
2023-04-23T21:22:38.448Z,53.38
2023-04-23T21:25:06.156Z,53.52
2023-04-23T21:27:34.261Z,53.54
2023-04-23T21:30:09.105Z,52.95
2023-04-23T21:32:41.785Z,53.10
2023-04-23T21:35:11.445Z,53.13
2023-04-23T21:37:39.179Z,52.85
2023-04-23T21:40:07.784Z,53.32
2023-04-23T21:42:36.342Z,53.18
2023-04-23T21:45:03.887Z,52.95
2023-04-23T21:47:31.459Z,53.27
2023-04-23T21:50:00.557Z,52.52
2023-04-23T21:52:30.469Z,53.24
2023-04-23T21:54:58.931Z,53.74
2023-04-23T21:57:26.408Z,55.35
2023-04-23T22:00:01.189Z,54.37
2023-04-23T22:02:37.812Z,55.14
2023-04-23T22:05:07.361Z,55.28
2023-04-23T22:07:39.884Z,54.94
2023-04-23T22:10:12.969Z,55.60
2023-04-23T22:12:46.322Z,55.65
2023-04-23T22:15:17.484Z,56.07
2023-04-23T22:17:46.560Z,55.07
2023-04-23T22:20:14.921Z,55.23
2023-04-23T22:22:43.038Z,55.57
2023-04-23T22:25:12.857Z,55.99
2023-04-23T22:27:41.772Z,56.32
2023-04-23T22:30:10.402Z,56.37
2023-04-23T22:32:38.480Z,56.11
2023-04-23T22:35:06.972Z,55.59
2023-04-23T22:37:34.748Z,55.80
2023-04-23T22:40:03.810Z,56.34
2023-04-23T22:42:31.541Z,56.04
2023-04-23T22:44:59.271Z,55.67
2023-04-23T22:47:26.471Z,55.76
2023-04-23T22:49:53.542Z,56.07
2023-04-23T22:52:21.000Z,55.16
2023-04-23T22:54:48.673Z,55.62
2023-04-23T22:57:15.886Z,55.58
2023-04-23T22:59:43.649Z,55.60
2023-04-23T23:02:11.129Z,55.45
2023-04-23T23:04:40.172Z,56.31
2023-04-23T23:07:10.154Z,55.21
2023-04-23T23:09:39.018Z,56.21
2023-04-23T23:12:10.560Z,55.84
2023-04-23T23:14:37.989Z,56.03
2023-04-23T23:17:06.355Z,55.98
2023-04-23T23:19:33.533Z,56.33
2023-04-23T23:22:02.500Z,56.46
2023-04-23T23:24:30.218Z,55.94
2023-04-23T23:26:57.528Z,55.45
2023-04-23T23:29:24.828Z,55.65
2023-04-23T23:31:52.088Z,55.93
2023-04-23T23:34:20.592Z,57.93
2023-04-23T23:36:52.675Z,57.43
2023-04-23T23:39:20.685Z,56.63
2023-04-23T23:41:48.616Z,56.68
2023-04-23T23:44:16.767Z,56.82
2023-04-23T23:46:43.917Z,57.03
2023-04-23T23:49:11.704Z,56.98
2023-04-23T23:51:38.826Z,56.38
2023-04-23T23:54:06.639Z,56.55
2023-04-23T23:56:33.795Z,56.07
